Del Norte International Airport
MMAN : now visible

Airfield :











YOU CAN JOIN US ON...

 
LOGIN :

Register | Disclaimer

   EN    FR    IT 

 









Legend :    VFR   Marginal VFR   IFR   Intensive IFR   Very Intensive IFR
Visi :
Ceiling :
>= 8 km
>= 3000ft
5 to 8 km
1000 to 3000 ft
1500m to 5 km
500 to 1000 ft
800 to 1500m
200 to 500 ft
< 800m
< 200 ft
Symbols :   Thunderstorms  Fog  Heavy snow  Heavy precipitations  Wind > 20 kt







- Airport Elevation : 1476 ft
- IATA code : NTR


MMAN - Del Norte International

EXPIRED METARs :
  • 220440Z 16003KT 5SM SKC 28/18 A2973 RMK HZY

TAF TAF MMAN
Valid from the 22 at 06:00 until the 23 at 06:00 UTC


220408Z 2206/2306 09005KT 5SM HZ SCT030
TEMPO 2211/2215 3SM BR HZ BKN020
FM221800 12015KT P6SM SCT030 BKN250
FM230500 12005KT 6SM HZ SCT030
MMFR FIR / North America



MET'MAP, your aeronautical weather chart ! - Copyright ORBIFLY December 2007 - Disclaimer

ORBIFLY MET'MAP TEAM :

Programming & Development : Alexandra Zaïnal
Concept & Development : Baudouin d'Aumeries
Co-Development & Prog : Marc-Olivier Méhu
Technical & hardware support : Manuel Goepfert

Contact : metmap@orbifly.com




SOURCES & CREDITS :

   NOAA       Earth
Advisory